Time;durP1;ratioP1;P1;durP2;ratioP2;P2;SDS_P1;SDS_P2;PMS_P1;PMS_P2;Temp;Humidity;BMP_temperature;BMP_pressure;BME280_temperature;BME280_humidity;BME280_pressure;Samples;Min_cycle;Max_cycle;Signal;HPM_P1;HPM_P2
2021/03/29 00:00:58;;;;;;;3.33;1.48;;;;;;;19.02;53.98;102479.09;5000019;28;20030;-76
2021/03/29 00:03:23;;;;;;;1.80;0.90;;;;;;;19.03;54.05;102475.63;5037848;28;20543;-77
2021/03/29 00:05:49;;;;;;;3.75;1.27;;;;;;;19.03;54.01;102478.25;4988686;28;20060;-78
2021/03/29 00:08:18;;;;;;;2.90;1.30;;;;;;;18.85;53.94;102448.22;4986650;28;20036;-76
2021/03/29 00:10:45;;;;;;;2.47;1.25;;;;;;;19.00;53.83;102473.84;5015359;28;20395;-77
2021/03/29 00:13:13;;;;;;;2.95;1.00;;;;;;;19.04;53.99;102483.53;5021994;28;20124;-76
2021/03/29 00:15:47;;;;;;;2.85;1.30;;;;;;;18.98;53.99;102466.78;5035736;28;20065;-77
2021/03/29 00:18:13;;;;;;;2.58;1.30;;;;;;;18.96;53.99;102464.13;5034413;28;20111;-75
2021/03/29 00:20:44;;;;;;;3.58;1.00;;;;;;;18.97;53.79;102463.28;5019852;28;20061;-76
2021/03/29 00:23:10;;;;;;;1.98;1.13;;;;;;;19.02;54.01;102479.09;5011025;28;20025;-78
2021/03/29 00:25:36;;;;;;;2.17;1.20;;;;;;;19.01;53.95;102475.59;5023771;28;20032;-75
2021/03/29 00:28:02;;;;;;;3.67;1.20;;;;;;;18.86;53.75;102457.84;5008515;28;20395;-78
2021/03/29 00:30:31;;;;;;;2.67;1.00;;;;;;;19.02;54.04;102480.00;4997585;28;20116;-76
2021/03/29 00:32:57;;;;;;;3.10;1.13;;;;;;;18.96;53.76;102471.13;5025164;28;20112;-76
2021/03/29 00:35:24;;;;;;;1.60;1.00;;;;;;;18.95;53.66;102472.88;4993746;28;20025;-76
2021/03/29 00:37:53;;;;;;;2.72;1.40;;;;;;;18.94;53.73;102473.75;4997441;28;20475;-77
2021/03/29 00:40:19;;;;;;;2.40;1.50;;;;;;;18.96;53.89;102473.72;5014274;28;20125;-75
2021/03/29 00:42:47;;;;;;;3.67;1.77;;;;;;;18.98;53.70;102472.03;4990113;28;20037;-77
2021/03/29 00:45:18;;;;;;;1.27;1.17;;;;;;;18.91;54.06;102457.94;5018464;28;20021;-76
2021/03/29 00:47:44;;;;;;;2.30;1.20;;;;;;;18.89;53.74;102454.41;5036228;28;20049;-77
2021/03/29 00:50:11;;;;;;;2.20;0.90;;;;;;;18.98;53.73;102465.06;5004314;28;20506;-79
2021/03/29 00:52:39;;;;;;;1.45;0.98;;;;;;;18.89;53.64;102455.28;5008763;28;20462;-78
2021/03/29 00:55:09;;;;;;;2.85;1.45;;;;;;;18.91;54.04;102471.94;5003164;28;20036;-76
2021/03/29 00:57:37;;;;;;;2.45;1.20;;;;;;;18.87;53.78;102454.38;5035825;28;20025;-76
2021/03/29 01:00:17;;;;;;;2.33;1.05;;;;;;;18.90;53.85;102470.16;5018591;28;20064;-78
2021/03/29 01:02:44;;;;;;;3.10;1.30;;;;;;;18.95;53.97;102492.97;5017977;28;20030;-79
2021/03/29 01:05:21;;;;;;;3.90;1.58;;;;;;;18.92;53.98;102481.56;4978618;28;20546;-77
2021/03/29 01:07:50;;;;;;;4.10;1.17;;;;;;;18.92;53.71;102494.69;5013566;28;20041;-80
2021/03/29 01:10:16;;;;;;;3.28;1.38;;;;;;;18.96;53.58;102490.34;5018473;28;20116;-80
2021/03/29 01:12:45;;;;;;;2.45;1.45;;;;;;;18.91;53.68;102492.03;5018324;28;20057;-79
2021/03/29 01:15:15;;;;;;;2.03;1.20;;;;;;;18.95;53.59;102487.72;5017969;28;20528;-76
2021/03/29 01:17:43;;;;;;;2.17;1.10;;;;;;;18.90;53.83;102496.38;5029498;28;20166;-75
2021/03/29 01:20:22;;;;;;;1.40;0.90;;;;;;;18.93;53.64;102490.31;5036022;28;20035;-75
2021/03/29 01:22:54;;;;;;;3.58;1.27;;;;;;;18.88;53.74;102486.72;5037594;28;20033;-76
2021/03/29 01:25:38;;;;;;;2.08;1.00;;;;;;;18.94;53.37;102502.56;5014206;28;20542;-78
2021/03/29 01:28:08;;;;;;;1.92;1.02;;;;;;;18.87;53.62;102474.47;5035087;28;20071;-76
2021/03/29 01:30:36;;;;;;;2.28;1.23;;;;;;;18.89;53.69;102491.09;5018021;28;20079;-79
2021/03/29 01:33:02;;;;;;;2.28;1.00;;;;;;;18.86;53.76;102483.16;5018368;28;20084;-76
2021/03/29 01:35:32;;;;;;;2.40;1.20;;;;;;;18.87;53.60;102485.81;5003132;28;20036;-75
2021/03/29 01:38:00;;;;;;;1.73;0.95;;;;;;;18.89;53.57;102481.50;5024883;28;20025;-77
2021/03/29 01:40:26;;;;;;;1.35;1.08;;;;;;;18.87;53.42;102496.31;5002951;28;20025;-78
2021/03/29 01:42:53;;;;;;;1.63;0.82;;;;;;;18.66;53.48;102451.34;5022768;28;20037;-78
2021/03/29 01:45:20;;;;;;;3.95;1.60;;;;;;;18.71;53.50;102468.03;4987697;28;20549;-77
2021/03/29 01:47:46;;;;;;;2.72;1.30;;;;;;;18.87;53.57;102498.94;5030407;28;20050;-78
2021/03/29 01:50:18;;;;;;;1.75;1.00;;;;;;;18.89;53.58;102497.22;5003970;28;20064;-78
2021/03/29 01:52:44;;;;;;;2.83;1.10;;;;;;;18.90;53.50;102505.97;5042146;28;20036;-77
2021/03/29 01:55:11;;;;;;;2.22;1.10;;;;;;;18.84;53.57;102495.34;5004503;28;20114;-79
2021/03/29 01:57:36;;;;;;;4.32;1.05;;;;;;;18.87;53.41;102501.56;5009910;28;20482;-78
2021/03/29 02:00:15;;;;;;;1.48;1.05;;;;;;;18.86;53.72;102502.41;5003912;28;20091;-77
2021/03/29 02:02:42;;;;;;;4.80;1.20;;;;;;;18.87;53.39;102504.19;5017625;28;20082;-77
2021/03/29 02:05:17;;;;;;;1.25;0.95;;;;;;;18.84;53.47;102504.09;4989800;28;20033;-79
2021/03/29 02:07:44;;;;;;;2.58;1.38;;;;;;;18.87;53.40;102503.28;4999515;28;20079;-77
2021/03/29 02:10:22;;;;;;;1.95;0.90;;;;;;;18.84;53.36;102498.88;5037559;28;20029;-77
2021/03/29 02:12:48;;;;;;;1.83;1.00;;;;;;;18.84;53.46;102490.13;5039580;28;20028;-76
2021/03/29 02:15:18;;;;;;;2.03;0.90;;;;;;;18.65;53.41;102446.06;5004849;28;20075;-77
2021/03/29 02:17:46;;;;;;;1.52;0.95;;;;;;;18.77;53.52;102478.63;5021052;28;20080;-76
2021/03/29 02:20:13;;;;;;;1.55;0.95;;;;;;;18.85;53.45;102492.78;5016414;28;20033;-77
2021/03/29 02:22:39;;;;;;;2.28;0.90;;;;;;;18.80;53.18;102473.47;5007800;28;20047;-76
2021/03/29 02:25:06;;;;;;;2.95;0.98;;;;;;;18.82;53.29;102484.88;5018454;28;20030;-76
2021/03/29 02:27:35;;;;;;;1.52;1.00;;;;;;;18.85;53.39;102486.66;4988124;28;20030;-76
2021/03/29 02:30:01;;;;;;;2.08;1.00;;;;;;;18.82;53.29;102481.38;5010482;28;20430;-76
2021/03/29 02:32:27;;;;;;;2.20;1.20;;;;;;;18.83;53.22;102488.34;5018404;28;20059;-76
2021/03/29 02:34:53;;;;;;;1.60;0.90;;;;;;;18.83;53.38;102478.75;5004819;28;20033;-78
2021/03/29 02:37:18;;;;;;;3.72;1.10;;;;;;;18.76;53.22;102476.00;4987044;28;20133;-77
2021/03/29 02:39:44;;;;;;;2.28;1.10;;;;;;;18.74;53.23;102473.34;5005863;28;20500;-76
2021/03/29 02:42:09;;;;;;;1.90;1.40;;;;;;;18.77;53.29;102477.75;5033504;28;20108;-77
2021/03/29 02:44:36;;;;;;;1.42;1.00;;;;;;;18.76;53.28;102476.00;5011589;28;20029;-75
2021/03/29 02:47:02;;;;;;;1.88;1.02;;;;;;;18.82;53.28;102494.47;5037263;28;20498;-76
2021/03/29 02:49:29;;;;;;;2.28;1.13;;;;;;;18.70;53.43;102471.50;5047506;28;20125;-76
2021/03/29 02:51:57;;;;;;;4.82;1.48;;;;;;;18.77;53.35;102497.00;5058299;28;20038;-76
2021/03/29 02:54:23;;;;;;;1.67;0.80;;;;;;;18.73;53.14;102486.41;5007734;28;20048;-76
2021/03/29 02:56:50;;;;;;;1.88;1.10;;;;;;;18.78;53.24;102492.63;5032343;28;20033;-77
2021/03/29 02:59:19;;;;;;;1.88;1.17;;;;;;;18.79;53.38;102490.03;5034423;28;20091;-77
2021/03/29 03:01:46;;;;;;;2.50;0.90;;;;;;;18.80;53.30;102486.56;5032820;28;20036;-76
2021/03/29 03:04:14;;;;;;;2.50;1.20;;;;;;;18.74;53.37;102483.81;5037236;28;20031;-76
2021/03/29 03:06:40;;;;;;;1.40;0.80;;;;;;;18.75;53.26;102484.69;5014738;28;20044;-76
2021/03/29 03:09:07;;;;;;;1.60;1.00;;;;;;;18.79;53.39;102490.03;5023072;28;20029;-76
2021/03/29 03:11:34;;;;;;;2.53;1.00;;;;;;;18.67;53.24;102468.84;5037566;28;20119;-78
2021/03/29 03:14:06;;;;;;;1.33;0.88;;;;;;;18.78;53.28;102479.53;5014413;28;20114;-77
2021/03/29 03:16:35;;;;;;;2.50;0.95;;;;;;;18.79;53.30;102486.53;5041445;28;20131;-75
2021/03/29 03:19:00;;;;;;;2.40;1.10;;;;;;;18.74;53.26;102475.94;5029451;28;20045;-79
2021/03/29 03:21:26;;;;;;;1.30;0.80;;;;;;;18.76;53.30;102484.75;5043379;28;20045;-76
2021/03/29 03:23:54;;;;;;;2.88;1.23;;;;;;;18.72;53.31;102477.66;5026539;28;20394;-76
2021/03/29 03:26:20;;;;;;;2.33;1.10;;;;;;;18.67;53.27;102467.94;5039845;28;20029;-77
2021/03/29 03:28:46;;;;;;;1.67;1.00;;;;;;;18.70;53.25;102481.09;5007752;28;20024;-75
2021/03/29 03:31:11;;;;;;;1.95;0.90;;;;;;;18.75;53.26;102500.44;5039461;28;20111;-77
2021/03/29 03:33:37;;;;;;;2.80;1.10;;;;;;;18.66;53.33;102482.78;5021300;28;20053;-76
2021/03/29 03:36:03;;;;;;;1.17;0.80;;;;;;;18.68;53.17;102473.22;5055933;28;20408;-76
2021/03/29 03:38:32;;;;;;;1.58;0.90;;;;;;;18.70;53.49;102484.59;5008979;28;20032;-76
2021/03/29 03:41:04;;;;;;;1.52;0.90;;;;;;;18.68;53.38;102486.34;5041699;28;20021;-76
2021/03/29 03:43:34;;;;;;;2.80;1.10;;;;;;;18.75;53.17;102497.81;5040689;28;20025;-76
2021/03/29 03:46:01;;;;;;;1.88;1.05;;;;;;;18.73;53.13;102505.63;5033771;28;20059;-76
2021/03/29 03:48:28;;;;;;;2.53;1.10;;;;;;;18.74;53.27;102499.53;5026500;28;20033;-75
2021/03/29 03:50:53;;;;;;;3.45;1.30;;;;;;;18.73;53.13;102503.00;5010631;28;20025;-78
2021/03/29 03:53:21;;;;;;;2.80;1.20;;;;;;;18.55;53.19;102469.44;5034388;28;20037;-75
2021/03/29 03:55:55;;;;;;;1.90;0.93;;;;;;;18.72;53.13;102500.34;5039007;28;20028;-76
2021/03/29 03:58:21;;;;;;;2.10;1.27;;;;;;;18.73;53.04;102500.38;5039419;28;20057;-77
2021/03/29 04:00:47;;;;;;;1.75;1.02;;;;;;;18.74;53.10;102496.03;5018613;28;20025;-76
2021/03/29 04:03:12;;;;;;;3.10;1.13;;;;;;;18.70;53.33;102486.34;5036482;28;20040;-76
2021/03/29 04:05:38;;;;;;;1.80;0.90;;;;;;;18.62;53.06;102478.34;5032794;28;20448;-76
2021/03/29 04:08:04;;;;;;;2.35;1.05;;;;;;;18.55;52.92;102472.06;5000243;28;20057;-76
2021/03/29 04:13:23;;;;;;;1.75;1.20;;;;;;;18.67;53.20;102484.56;5009548;28;20126;-76
2021/03/29 04:15:49;;;;;;;1.25;0.93;;;;;;;18.72;52.97;102498.63;5018111;28;20037;-76
2021/03/29 04:18:15;;;;;;;2.47;1.30;;;;;;;18.69;52.84;102501.22;5037015;28;20021;-76
2021/03/29 04:20:41;;;;;;;2.60;1.02;;;;;;;18.69;53.07;102492.47;5001642;28;20022;-76
2021/03/29 04:23:06;;;;;;;2.88;1.63;;;;;;;18.49;53.15;102460.56;5005071;28;20029;-76
2021/03/29 04:25:32;;;;;;;4.18;1.30;;;;;;;18.65;52.82;102488.00;5035519;28;20037;-77
2021/03/29 04:27:57;;;;;;;4.88;1.45;;;;;;;18.69;53.14;102482.84;5020034;28;20562;-76
2021/03/29 04:30:24;;;;;;;2.05;0.80;;;;;;;18.64;53.15;102470.50;5007821;28;20489;-76
2021/03/29 04:32:52;;;;;;;1.35;1.00;;;;;;;18.65;53.14;102482.75;5049759;28;20075;-75
2021/03/29 04:35:20;;;;;;;1.70;1.05;;;;;;;18.68;53.17;102482.81;5017947;28;20027;-73
2021/03/29 04:37:46;;;;;;;3.25;0.90;;;;;;;18.59;53.26;102467.78;5016237;28;20053;-74
2021/03/29 04:40:12;;;;;;;4.82;1.58;;;;;;;18.62;53.28;102461.72;5030321;28;20408;-73
2021/03/29 04:42:37;;;;;;;1.80;1.40;;;;;;;18.62;53.24;102478.34;5036453;28;20022;-74
2021/03/29 04:45:05;;;;;;;1.77;1.30;;;;;;;18.66;53.04;102481.91;5022867;28;20032;-74
2021/03/29 04:47:31;;;;;;;1.75;1.00;;;;;;;18.69;53.30;102493.34;5027009;28;20041;-75
2021/03/29 04:49:56;;;;;;;1.88;0.90;;;;;;;18.67;53.13;102479.31;5002653;28;20089;-76
2021/03/29 04:52:21;;;;;;;1.75;1.02;;;;;;;18.70;53.36;102505.56;5036237;28;20033;-75
2021/03/29 04:54:47;;;;;;;2.17;1.00;;;;;;;18.73;53.24;102494.25;5000218;28;20467;-82
2021/03/29 04:57:12;;;;;;;1.83;0.63;;;;;;;18.64;53.24;102487.13;5002407;28;20064;-74
2021/03/29 04:59:37;;;;;;;1.85;1.00;;;;;;;18.66;53.63;102495.00;5013010;28;20029;-74
2021/03/29 05:02:03;;;;;;;2.28;1.45;;;;;;;18.66;53.49;102495.00;5018674;28;20026;-77
2021/03/29 05:04:28;;;;;;;2.00;0.90;;;;;;;18.71;53.17;102501.22;4995337;28;20460;-77
2021/03/29 05:06:54;;;;;;;2.15;1.00;;;;;;;18.68;53.25;102503.78;4999984;28;20034;-78
2021/03/29 05:09:19;;;;;;;2.03;1.00;;;;;;;18.68;53.29;102507.28;4981587;28;20056;-75
2021/03/29 05:14:14;;;;;;;2.35;1.15;;;;;;;18.65;53.29;102509.84;5022670;28;20025;-78
2021/03/29 05:16:40;;;;;;;5.53;1.20;;;;;;;18.66;53.52;102519.47;5038330;28;20060;-77
2021/03/29 05:19:06;;;;;;;3.00;1.23;;;;;;;18.55;53.39;102500.88;5008982;28;20053;-76
2021/03/29 05:21:31;;;;;;;2.42;1.20;;;;;;;18.65;53.35;102519.44;5026091;28;20428;-77
2021/03/29 05:23:57;;;;;;;2.60;1.00;;;;;;;18.57;53.08;102509.63;4992145;28;20480;-78
2021/03/29 05:26:22;;;;;;;1.98;1.10;;;;;;;18.65;53.25;102517.72;5022847;28;20033;-79
2021/03/29 05:28:48;;;;;;;4.07;1.67;;;;;;;18.66;53.46;102522.09;5010255;28;20060;-78
2021/03/29 05:31:13;;;;;;;3.00;0.98;;;;;;;18.64;53.09;102528.16;5007468;28;20025;-78
2021/03/29 05:33:38;;;;;;;2.53;1.00;;;;;;;18.55;53.25;102511.38;5024214;28;20029;-80
2021/03/29 05:36:07;;;;;;;2.13;1.15;;;;;;;18.61;53.19;102522.84;5020975;28;20124;-79
2021/03/29 05:38:32;;;;;;;2.28;1.10;;;;;;;18.61;53.39;102522.84;5038585;28;20088;-77
2021/03/29 05:40:58;;;;;;;1.98;1.00;;;;;;;18.62;53.19;102546.47;5003079;28;20042;-75
2021/03/29 05:43:24;;;;;;;4.32;1.40;;;;;;;18.62;53.77;102546.47;5010397;28;20117;-73
2021/03/29 05:45:50;;;;;;;5.47;1.58;;;;;;;18.53;51.82;102530.50;5001575;28;20352;-73
2021/03/29 05:48:16;;;;;;;4.70;1.42;;;;;;;18.60;52.92;102544.66;5033516;28;20048;-74
2021/03/29 05:50:41;;;;;;;3.55;1.17;;;;;;;18.65;53.07;102556.13;5020749;28;20494;-73
2021/03/29 05:53:07;;;;;;;3.60;1.75;;;;;;;18.80;52.92;102562.59;5021118;28;20037;-75
2021/03/29 05:55:36;;;;;;;4.68;1.13;;;;;;;18.75;52.59;102555.47;5032850;28;20486;-74
2021/03/29 06:00:35;;;;;;;2.75;1.15;;;;;;;18.89;52.97;102570.63;5062350;28;20085;-74
2021/03/29 06:03:20;;;;;;;3.38;1.35;;;;;;;18.96;52.73;102579.50;5060696;28;20060;-74
2021/03/29 06:05:47;;;;;;;4.65;1.70;;;;;;;18.92;52.97;102578.56;5024193;28;20475;-75
2021/03/29 06:08:13;;;;;;;2.28;1.52;;;;;;;18.91;53.08;102571.56;5057256;28;20482;-75
2021/03/29 06:10:39;;;;;;;8.80;2.08;;;;;;;18.96;53.02;102569.00;5044003;28;20028;-74
2021/03/29 06:13:28;;;;;;;2.65;1.27;;;;;;;19.04;52.89;102590.16;5043527;28;20037;-76
2021/03/29 06:16:03;;;;;;;8.82;1.70;;;;;;;18.92;53.01;102568.06;5056606;28;20031;-75
2021/03/29 06:18:29;;;;;;;4.20;2.17;;;;;;;19.06;52.86;102593.69;5042557;28;20036;-76
2021/03/29 06:21:04;;;;;;;2.83;1.52;;;;;;;19.05;52.90;102584.06;5023582;28;20061;-76
2021/03/29 06:23:31;;;;;;;3.72;1.85;;;;;;;19.10;53.05;102598.13;5062486;28;20110;-76
2021/03/29 06:26:15;;;;;;;2.75;1.40;;;;;;;19.09;52.96;102588.50;5043404;28;20025;-75
2021/03/29 06:28:40;;;;;;;2.58;1.40;;;;;;;19.14;52.88;102599.97;5025840;28;20036;-74
2021/03/29 06:31:30;;;;;;;2.38;1.15;;;;;;;19.15;52.92;102592.13;5054178;28;20038;-75
2021/03/29 06:33:57;;;;;;;4.05;1.70;;;;;;;19.12;53.08;102594.69;5030506;28;20021;-74
2021/03/29 06:36:34;;;;;;;3.60;1.33;;;;;;;19.12;52.71;102589.44;5059355;28;20036;-74
2021/03/29 06:39:34;;;;;;;3.40;2.00;;;;;;;19.23;52.73;102595.78;5028519;28;20029;-73
2021/03/29 06:42:00;;;;;;;3.58;1.20;;;;;;;19.18;52.80;102591.31;5034744;28;20047;-76
2021/03/29 06:44:31;;;;;;;3.80;1.35;;;;;;;19.14;52.99;102599.97;5044359;28;20025;-75
2021/03/29 06:47:05;;;;;;;5.20;1.48;;;;;;;19.19;52.59;102611.44;5030717;28;20054;-74
2021/03/29 06:49:46;;;;;;;4.07;1.65;;;;;;;19.20;52.91;102613.22;5023154;28;20386;-74
2021/03/29 06:52:19;;;;;;;5.10;1.85;;;;;;;19.20;52.52;102608.84;5024192;28;20048;-74
2021/03/29 06:54:44;;;;;;;3.33;1.27;;;;;;;19.18;52.63;102602.69;5022078;28;20028;-74
2021/03/29 06:57:10;;;;;;;3.22;1.60;;;;;;;19.18;52.93;102614.91;4999419;28;20117;-74
2021/03/29 06:59:39;;;;;;;3.75;1.73;;;;;;;19.24;52.63;102620.28;5003389;28;20040;-74
2021/03/29 07:02:07;;;;;;;2.83;1.55;;;;;;;19.20;52.84;102613.22;5014701;28;20472;-74
2021/03/29 07:04:33;;;;;;;2.97;1.20;;;;;;;19.22;52.80;102625.47;5031311;28;20033;-73
2021/03/29 07:07:01;;;;;;;4.53;1.48;;;;;;;19.20;52.53;102627.22;5019402;28;20029;-73
2021/03/29 07:09:29;;;;;;;2.28;1.23;;;;;;;19.17;52.70;102618.41;5016581;28;20033;-75
2021/03/29 07:11:56;;;;;;;4.60;1.10;;;;;;;19.28;52.79;102633.50;5003856;28;20029;-73
2021/03/29 07:14:22;;;;;;;2.50;1.50;;;;;;;19.26;52.82;102650.94;5046927;28;20078;-72
2021/03/29 07:16:48;;;;;;;3.55;1.42;;;;;;;19.22;52.76;102635.09;5002330;28;20033;-79
2021/03/29 07:19:14;;;;;;;3.28;1.20;;;;;;;19.23;53.14;102647.34;5018854;28;20073;-78
2021/03/29 07:21:40;;;;;;;4.80;1.60;;;;;;;19.20;52.86;102637.72;5015209;28;20033;-72
2021/03/29 07:24:10;;;;;;;4.18;1.52;;;;;;;19.17;52.87;102652.50;5024559;28;20021;-71
2021/03/29 07:26:38;;;;;;;4.32;1.65;;;;;;;19.25;52.54;102675.38;5016304;28;20108;-73
2021/03/29 07:29:18;;;;;;;4.32;1.27;;;;;;;19.25;52.79;102670.13;5034980;28;20426;-73
2021/03/29 07:31:46;;;;;;;3.78;1.23;;;;;;;19.23;52.88;102681.44;5017017;28;20379;-74
2021/03/29 07:34:15;;;;;;;4.03;2.08;;;;;;;19.22;52.94;102679.69;5001753;28;20045;-78
2021/03/29 07:36:49;;;;;;;4.38;1.25;;;;;;;19.00;52.75;102636.38;5013013;28;20060;-77
2021/03/29 07:39:39;;;;;;;3.50;1.45;;;;;;;19.26;52.93;102690.28;5016447;28;20432;-80
2021/03/29 07:42:22;;;;;;;3.50;1.75;;;;;;;19.27;52.97;102689.44;5042742;28;20369;-77
2021/03/29 07:45:04;;;;;;;4.63;1.88;;;;;;;19.27;52.98;102697.28;5031223;28;20032;-73
2021/03/29 07:47:53;;;;;;;4.15;1.27;;;;;;;19.27;52.82;102699.03;5001332;28;20146;-77
2021/03/29 07:50:24;;;;;;;2.00;1.20;;;;;;;19.27;52.81;102693.78;5016538;28;20064;-77
2021/03/29 07:53:01;;;;;;;7.15;2.28;;;;;;;19.24;52.61;102697.22;5013482;28;20475;-75
2021/03/29 07:55:42;;;;;;;6.53;1.92;;;;;;;19.28;52.91;102703.44;5018345;28;20061;-77
2021/03/29 07:58:13;;;;;;;2.95;1.30;;;;;;;19.29;52.69;102713.06;5032086;28;20040;-78
2021/03/29 08:00:38;;;;;;;2.25;1.60;;;;;;;19.28;52.90;102709.56;5020541;28;20033;-78
2021/03/29 08:03:13;;;;;;;1.83;1.02;;;;;;;19.29;52.87;102713.06;5018369;28;20179;-76
2021/03/29 08:05:43;;;;;;;2.92;1.58;;;;;;;19.26;52.96;102719.13;5018838;28;20029;-80
2021/03/29 08:08:24;;;;;;;2.47;1.20;;;;;;;19.24;52.87;102715.59;5015463;28;20059;-79
2021/03/29 08:10:59;;;;;;;3.30;1.98;;;;;;;19.27;52.86;102714.78;5036896;28;20025;-81
2021/03/29 08:13:44;;;;;;;4.53;2.55;;;;;;;19.27;52.94;102712.16;5016241;28;20040;-73
2021/03/29 08:16:09;;;;;;;1.50;1.00;;;;;;;19.28;52.84;102720.06;5023889;28;20057;-72
2021/03/29 08:19:09;;;;;;;2.08;1.10;;;;;;;19.28;53.12;102722.69;5009669;28;20065;-73
2021/03/29 08:21:55;;;;;;;2.05;1.25;;;;;;;19.30;52.84;102732.31;5000391;28;20032;-73
2021/03/29 08:24:30;;;;;;;3.00;1.60;;;;;;;19.30;52.55;102727.97;5022043;28;20115;-74
2021/03/29 08:27:01;;;;;;;1.85;1.27;;;;;;;19.31;52.84;102739.34;5010436;28;20080;-74
2021/03/29 08:29:32;;;;;;;2.35;1.30;;;;;;;19.20;52.82;102739.13;5017193;28;20037;-75
2021/03/29 08:32:03;;;;;;;2.35;1.38;;;;;;;19.28;52.78;102762.03;4986815;28;20034;-72
2021/03/29 08:34:31;;;;;;;3.47;1.60;;;;;;;19.25;52.82;102745.31;5008794;28;20032;-78
2021/03/29 08:37:01;;;;;;;2.88;1.40;;;;;;;19.27;52.82;102759.38;5026915;28;20037;-77
2021/03/29 08:39:30;;;;;;;4.50;1.25;;;;;;;19.25;53.05;102763.69;5017623;28;20083;-76
2021/03/29 08:41:57;;;;;;;2.58;1.13;;;;;;;19.23;52.80;102765.38;5017581;28;20064;-76
2021/03/29 08:44:23;;;;;;;3.75;1.23;;;;;;;19.17;52.78;102760.91;5033537;28;20029;-75
2021/03/29 08:46:50;;;;;;;4.43;1.70;;;;;;;19.22;52.81;102769.75;5017432;28;20067;-75
2021/03/29 08:49:16;;;;;;;2.45;1.33;;;;;;;19.15;52.84;102765.22;5000772;28;20092;-76
2021/03/29 08:51:42;;;;;;;2.40;0.98;;;;;;;19.12;52.78;102764.25;5015831;28;20029;-75
2021/03/29 08:54:12;;;;;;;3.55;1.60;;;;;;;19.22;52.91;102780.22;4999890;28;20479;-77
2021/03/29 08:56:44;;;;;;;3.72;1.92;;;;;;;19.24;52.71;102794.28;5019238;28;20513;-75
2021/03/29 08:59:11;;;;;;;2.03;1.17;;;;;;;19.21;52.70;102785.47;5046539;28;20391;-77
2021/03/29 09:01:41;;;;;;;2.95;1.50;;;;;;;19.22;52.87;102779.34;5016158;28;20430;-77
2021/03/29 09:04:08;;;;;;;2.97;1.50;;;;;;;19.25;52.78;102798.66;5016275;28;20026;-72
2021/03/29 09:06:34;;;;;;;1.73;1.20;;;;;;;19.20;52.95;102795.06;5033443;28;20021;-70
2021/03/29 09:09:17;;;;;;;4.63;1.50;;;;;;;19.18;52.53;102793.25;5017837;28;20179;-75
2021/03/29 09:11:44;;;;;;;2.53;1.40;;;;;;;19.19;52.91;102789.78;5012559;28;20029;-73
2021/03/29 09:14:11;;;;;;;2.10;1.30;;;;;;;19.24;52.81;102812.63;4996193;28;20044;-72
2021/03/29 09:16:40;;;;;;;3.30;1.42;;;;;;;19.24;52.84;102801.25;5014903;28;20040;-72
2021/03/29 09:19:12;;;;;;;1.73;1.00;;;;;;;19.12;52.83;102786.13;5041717;28;20439;-73
2021/03/29 09:21:39;;;;;;;4.00;1.42;;;;;;;19.19;52.85;102818.63;5009633;28;20109;-73
2021/03/29 09:24:18;;;;;;;2.90;1.27;;;;;;;19.23;52.69;102804.72;4996408;28;20030;-75
2021/03/29 09:26:53;;;;;;;2.58;1.45;;;;;;;19.18;52.96;102820.38;5013390;28;20018;-74
2021/03/29 09:29:33;;;;;;;2.83;1.80;;;;;;;19.17;52.75;102823.84;5009556;28;20116;-73
2021/03/29 09:32:08;;;;;;;3.35;1.70;;;;;;;19.15;52.88;102827.28;5015535;28;20017;-75
2021/03/29 09:34:35;;;;;;;2.15;1.40;;;;;;;19.18;52.77;102836.13;5002177;28;20026;-73
2021/03/29 09:37:01;;;;;;;3.85;1.50;;;;;;;19.20;52.82;102834.41;5048387;28;20037;-73
2021/03/29 09:39:31;;;;;;;7.60;3.03;;;;;;;19.17;52.80;102831.72;5032864;28;20360;-75
2021/03/29 09:41:57;;;;;;;2.20;1.40;;;;;;;19.21;53.08;102837.94;5014317;28;20041;-74
2021/03/29 09:44:26;;;;;;;3.40;1.75;;;;;;;19.21;52.85;102841.41;5026847;28;20079;-74
2021/03/29 09:46:58;;;;;;;2.53;1.25;;;;;;;19.12;52.84;102827.19;5040941;28;20045;-76
2021/03/29 09:49:24;;;;;;;4.20;1.58;;;;;;;19.18;52.52;102848.34;5028476;28;20022;-74
2021/03/29 09:52:00;;;;;;;5.80;1.52;;;;;;;19.21;52.82;102861.53;5043848;28;20530;-74
2021/03/29 09:54:32;;;;;;;2.20;1.20;;;;;;;19.21;52.64;102858.91;5007191;28;20022;-77
2021/03/29 09:57:10;;;;;;;2.35;1.10;;;;;;;19.13;52.70;102858.72;5045006;28;20038;-71
2021/03/29 09:59:36;;;;;;;2.45;1.20;;;;;;;19.15;52.42;102843.91;5027072;28;20357;-72
2021/03/29 10:02:11;;;;;;;1.77;1.20;;;;;;;19.10;52.76;102836.75;5018373;28;20025;-73
2021/03/29 10:04:36;;;;;;;4.32;1.60;;;;;;;19.16;52.96;102850.03;5016192;28;20026;-73
2021/03/29 10:07:02;;;;;;;4.60;1.38;;;;;;;19.17;52.94;102846.56;5034571;28;20106;-72
2021/03/29 10:09:30;;;;;;;3.05;1.58;;;;;;;19.19;52.84;102848.38;5022056;28;20036;-71
2021/03/29 10:11:55;;;;;;;2.63;1.70;;;;;;;19.22;52.63;102840.56;5033240;28;20108;-71
2021/03/29 10:14:30;;;;;;;3.75;1.58;;;;;;;19.23;52.81;102837.09;5036508;28;20113;-73
2021/03/29 10:16:55;;;;;;;4.57;2.17;;;;;;;19.29;52.64;102831.13;5025471;28;20068;-73
2021/03/29 10:19:21;;;;;;;3.42;2.17;;;;;;;19.25;52.78;102839.75;5016226;28;20108;-72
2021/03/29 10:22:14;;;;;;;4.35;2.65;;;;;;;19.30;52.69;102843.38;5034712;28;20540;-73
2021/03/29 10:25:07;;;;;;;5.90;2.75;;;;;;;19.30;52.95;102853.88;5021000;28;20473;-73
2021/03/29 10:27:52;;;;;;;5.88;2.53;;;;;;;19.28;53.01;102861.69;5033768;28;20455;-73
2021/03/29 10:30:17;;;;;;;4.38;2.63;;;;;;;19.30;53.11;102851.25;5032751;28;20037;-73
2021/03/29 10:32:43;;;;;;;4.75;2.78;;;;;;;19.30;53.06;102859.13;5035985;28;20025;-74
2021/03/29 10:35:09;;;;;;;4.80;2.15;;;;;;;19.23;52.86;102844.97;5024216;28;20044;-75
2021/03/29 10:37:34;;;;;;;5.35;2.00;;;;;;;19.25;53.08;102853.75;5035417;28;20037;-74
2021/03/29 10:40:00;;;;;;;3.42;1.95;;;;;;;19.25;53.19;102842.38;5044746;28;20036;-74
2021/03/29 10:42:31;;;;;;;5.05;2.47;;;;;;;19.29;53.21;102852.09;5009020;28;20026;-74
2021/03/29 10:44:56;;;;;;;6.60;2.70;;;;;;;19.22;53.09;102851.06;5019407;28;20499;-75
2021/03/29 10:47:23;;;;;;;3.17;2.05;;;;;;;19.24;53.19;102854.59;5015491;28;20053;-74
2021/03/29 10:49:49;;;;;;;5.05;2.28;;;;;;;19.23;53.04;102857.19;4988783;28;20038;-75
2021/03/29 10:52:16;;;;;;;4.57;2.28;;;;;;;19.23;53.18;102844.06;5021898;28;20034;-75
2021/03/29 10:54:41;;;;;;;3.80;1.90;;;;;;;19.25;53.12;102852.88;5031702;28;20041;-75
2021/03/29 10:57:06;;;;;;;4.57;2.20;;;;;;;19.25;53.26;102855.50;5016802;28;20041;-74
2021/03/29 10:59:32;;;;;;;3.28;1.95;;;;;;;19.22;53.22;102851.06;5036115;28;20029;-75
2021/03/29 11:01:59;;;;;;;3.78;2.42;;;;;;;19.26;53.14;102862.50;5022238;28;20022;-74
2021/03/29 11:04:24;;;;;;;8.57;2.80;;;;;;;19.25;53.12;102851.13;5022735;28;20387;-75
2021/03/29 11:06:50;;;;;;;3.22;2.13;;;;;;;19.20;53.12;102849.25;5002970;28;20029;-75
2021/03/29 11:09:15;;;;;;;4.53;1.90;;;;;;;19.21;53.16;102858.91;5017219;28;20434;-74
2021/03/29 11:11:40;;;;;;;4.93;2.65;;;;;;;19.24;53.28;102870.34;5001278;28;20493;-74
2021/03/29 11:14:06;;;;;;;4.57;2.45;;;;;;;19.16;53.15;102857.91;5002181;28;20365;-73
2021/03/29 11:16:33;;;;;;;7.43;2.05;;;;;;;19.26;53.08;102873.88;5003229;28;20032;-75
2021/03/29 11:18:59;;;;;;;4.00;2.60;;;;;;;19.21;53.04;102869.41;5019836;28;20022;-74
2021/03/29 11:21:25;;;;;;;5.22;2.22;;;;;;;19.17;53.32;102859.69;4985646;28;20028;-74
2021/03/29 11:23:50;;;;;;;4.25;2.35;;;;;;;19.14;53.15;102854.34;5017056;28;20123;-73
2021/03/29 11:26:16;;;;;;;5.53;2.67;;;;;;;19.12;52.89;102856.03;5018333;28;20028;-74
2021/03/29 11:28:41;;;;;;;4.65;2.10;;;;;;;19.21;52.95;102867.63;4995912;28;20122;-74
2021/03/29 11:31:07;;;;;;;5.22;2.60;;;;;;;19.17;52.97;102863.19;5033829;28;20395;-72
2021/03/29 11:33:32;;;;;;;4.88;2.03;;;;;;;19.22;53.00;102869.41;5022216;28;20030;-72
2021/03/29 11:35:58;;;;;;;3.63;2.38;;;;;;;19.19;52.90;102869.38;5017039;28;20112;-72
2021/03/29 11:38:23;;;;;;;3.70;2.78;;;;;;;19.23;52.98;102875.53;4995562;28;20029;-74
2021/03/29 11:40:49;;;;;;;6.20;3.63;;;;;;;19.23;53.15;102880.78;5035694;28;20072;-72